sensor_id;sensor_type;location;lat;lon;timestamp;pressure;altitude;pressure_sealevel;temperature;humidity
11395;BME280;5753;54.402;10.220;2023-04-15T00:00:33;101125.94;;;18.06;50.98
11395;BME280;5753;54.402;10.220;2023-04-15T00:03:00;101121.81;;;17.84;51.96
11395;BME280;5753;54.402;10.220;2023-04-15T00:05:30;101119.09;;;17.93;51.42
11395;BME280;5753;54.402;10.220;2023-04-15T00:07:56;101120.19;;;18.55;50.16
11395;BME280;5753;54.402;10.220;2023-04-15T00:10:24;101100.81;;;17.99;51.24
11395;BME280;5753;54.402;10.220;2023-04-15T00:12:50;101103.22;;;18.17;50.67
11395;BME280;5753;54.402;10.220;2023-04-15T00:15:17;101100.50;;;18.27;50.41
11395;BME280;5753;54.402;10.220;2023-04-15T00:17:43;101099.53;;;17.43;52.75
11395;BME280;5753;54.402;10.220;2023-04-15T00:20:10;101096.59;;;16.57;54.45
11395;BME280;5753;54.402;10.220;2023-04-15T00:22:36;101095.38;;;17.21;52.51
11395;BME280;5753;54.402;10.220;2023-04-15T00:25:02;101092.97;;;16.89;53.99
11395;BME280;5753;54.402;10.220;2023-04-15T00:27:29;101098.34;;;17.84;52.07
11395;BME280;5753;54.402;10.220;2023-04-15T00:29:55;101095.66;;;16.75;53.88
11395;BME280;5753;54.402;10.220;2023-04-15T00:32:22;101091.63;;;17.55;52.91
11395;BME280;5753;54.402;10.220;2023-04-15T00:34:48;101093.34;;;17.58;51.74
11395;BME280;5753;54.402;10.220;2023-04-15T00:37:15;101093.31;;;17.62;52.56
11395;BME280;5753;54.402;10.220;2023-04-15T00:39:41;101101.28;;;17.43;52.88
11395;BME280;5753;54.402;10.220;2023-04-15T00:42:08;101097.84;;;17.39;53.09
11395;BME280;5753;54.402;10.220;2023-04-15T00:44:35;101095.88;;;17.70;51.99
11395;BME280;5753;54.402;10.220;2023-04-15T00:47:01;101093.28;;;17.70;52.18
11395;BME280;5753;54.402;10.220;2023-04-15T00:49:30;101089.94;;;18.37;50.35
11395;BME280;5753;54.402;10.220;2023-04-15T00:51:57;101096.66;;;17.78;51.83
11395;BME280;5753;54.402;10.220;2023-04-15T00:54:23;101089.56;;;17.92;51.84
11395;BME280;5753;54.402;10.220;2023-04-15T00:56:49;101083.16;;;18.22;50.88
11395;BME280;5753;54.402;10.220;2023-04-15T00:59:17;101081.69;;;17.97;51.41
11395;BME280;5753;54.402;10.220;2023-04-15T01:01:44;101088.13;;;18.41;50.33
11395;BME280;5753;54.402;10.220;2023-04-15T01:04:10;101081.56;;;17.10;53.48
11395;BME280;5753;54.402;10.220;2023-04-15T01:06:37;101082.72;;;16.51;55.58
11395;BME280;5753;54.402;10.220;2023-04-15T01:09:03;101082.56;;;16.87;54.85
11395;BME280;5753;54.402;10.220;2023-04-15T01:11:30;101074.56;;;18.13;51.68
11395;BME280;5753;54.402;10.220;2023-04-15T01:13:58;101079.56;;;19.00;49.33
11395;BME280;5753;54.402;10.220;2023-04-15T01:16:25;101073.59;;;18.92;49.43
11395;BME280;5753;54.402;10.220;2023-04-15T01:18:53;101063.09;;;18.95;49.21
11395;BME280;5753;54.402;10.220;2023-04-15T01:21:20;101073.41;;;17.54;52.59
11395;BME280;5753;54.402;10.220;2023-04-15T01:23:47;101078.53;;;17.65;52.63
11395;BME280;5753;54.402;10.220;2023-04-15T01:26:14;101081.13;;;16.22;56.11
11395;BME280;5753;54.402;10.220;2023-04-15T01:28:41;101079.59;;;17.39;54.36
11395;BME280;5753;54.402;10.220;2023-04-15T01:31:11;101081.53;;;17.17;54.63
11395;BME280;5753;54.402;10.220;2023-04-15T01:33:38;101075.69;;;16.77;55.73
11395;BME280;5753;54.402;10.220;2023-04-15T01:36:06;101080.25;;;16.26;56.87
11395;BME280;5753;54.402;10.220;2023-04-15T01:38:33;101081.53;;;17.16;54.52
11395;BME280;5753;54.402;10.220;2023-04-15T01:41:00;101081.69;;;16.91;55.45
11395;BME280;5753;54.402;10.220;2023-04-15T01:43:26;101080.25;;;17.66;52.61
11395;BME280;5753;54.402;10.220;2023-04-15T01:45:53;101073.22;;;17.77;52.89
11395;BME280;5753;54.402;10.220;2023-04-15T01:48:19;101078.31;;;18.64;50.56
11395;BME280;5753;54.402;10.220;2023-04-15T01:50:46;101084.72;;;17.51;53.65
11395;BME280;5753;54.402;10.220;2023-04-15T01:53:12;101079.28;;;18.54;50.77
11395;BME280;5753;54.402;10.220;2023-04-15T01:55:38;101078.94;;;18.11;51.50
11395;BME280;5753;54.402;10.220;2023-04-15T01:58:04;101086.09;;;16.79;54.84
11395;BME280;5753;54.402;10.220;2023-04-15T02:00:31;101075.72;;;17.86;52.76
11395;BME280;5753;54.402;10.220;2023-04-15T02:02:57;101072.38;;;17.75;52.42
11395;BME280;5753;54.402;10.220;2023-04-15T02:05:24;101079.00;;;17.00;55.12
11395;BME280;5753;54.402;10.220;2023-04-15T02:07:51;101080.31;;;17.58;53.61
11395;BME280;5753;54.402;10.220;2023-04-15T02:10:17;101082.00;;;17.68;53.64
11395;BME280;5753;54.402;10.220;2023-04-15T02:12:43;101074.53;;;18.17;52.18
11395;BME280;5753;54.402;10.220;2023-04-15T02:15:10;101073.09;;;17.89;52.27
11395;BME280;5753;54.402;10.220;2023-04-15T02:17:37;101075.72;;;18.61;50.50
11395;BME280;5753;54.402;10.220;2023-04-15T02:20:03;101074.84;;;17.85;52.69
11395;BME280;5753;54.402;10.220;2023-04-15T02:22:34;101074.16;;;17.70;52.99
11395;BME280;5753;54.402;10.220;2023-04-15T02:25:00;101070.28;;;18.07;52.26
11395;BME280;5753;54.402;10.220;2023-04-15T02:27:26;101068.47;;;18.15;52.02
11395;BME280;5753;54.402;10.220;2023-04-15T02:29:54;101066.41;;;18.39;51.11
11395;BME280;5753;54.402;10.220;2023-04-15T02:32:20;101061.69;;;17.96;52.24
11395;BME280;5753;54.402;10.220;2023-04-15T02:34:48;101064.97;;;18.16;51.98
11395;BME280;5753;54.402;10.220;2023-04-15T02:37:14;101070.41;;;17.95;52.22
11395;BME280;5753;54.402;10.220;2023-04-15T02:39:41;101067.38;;;17.50;53.13
11395;BME280;5753;54.402;10.220;2023-04-15T02:42:07;101069.09;;;17.51;53.24
11395;BME280;5753;54.402;10.220;2023-04-15T02:44:33;101063.94;;;18.28;51.94
11395;BME280;5753;54.402;10.220;2023-04-15T02:47:01;101066.53;;;18.30;51.38
11395;BME280;5753;54.402;10.220;2023-04-15T02:49:28;101069.78;;;18.50;51.09
11395;BME280;5753;54.402;10.220;2023-04-15T02:51:57;101065.13;;;18.04;51.89
11395;BME280;5753;54.402;10.220;2023-04-15T02:54:25;101062.97;;;18.37;50.82
11395;BME280;5753;54.402;10.220;2023-04-15T02:56:53;101056.38;;;18.77;50.28
11395;BME280;5753;54.402;10.220;2023-04-15T02:59:22;101067.78;;;17.97;52.59
11395;BME280;5753;54.402;10.220;2023-04-15T03:01:49;101069.88;;;16.08;57.51
11395;BME280;5753;54.402;10.220;2023-04-15T03:04:15;101068.50;;;17.17;55.19
11395;BME280;5753;54.402;10.220;2023-04-15T03:06:41;101072.28;;;16.64;56.21
11395;BME280;5753;54.402;10.220;2023-04-15T03:09:07;101066.25;;;16.52;56.66
11395;BME280;5753;54.402;10.220;2023-04-15T03:11:35;101075.16;;;15.35;60.66
11395;BME280;5753;54.402;10.220;2023-04-15T03:14:08;101069.78;;;16.38;58.66
11395;BME280;5753;54.402;10.220;2023-04-15T03:16:34;101078.19;;;16.95;56.37
11395;BME280;5753;54.402;10.220;2023-04-15T03:19:00;101067.06;;;16.69;57.14
11395;BME280;5753;54.402;10.220;2023-04-15T03:21:26;101064.47;;;16.63;57.30
11395;BME280;5753;54.402;10.220;2023-04-15T03:23:53;101059.00;;;17.09;56.10
11395;BME280;5753;54.402;10.220;2023-04-15T03:26:29;101063.34;;;17.11;56.44
11395;BME280;5753;54.402;10.220;2023-04-15T03:28:56;101056.81;;;16.29;57.33
11395;BME280;5753;54.402;10.220;2023-04-15T03:31:22;101050.56;;;17.82;53.93
11395;BME280;5753;54.402;10.220;2023-04-15T03:33:49;101058.50;;;17.70;54.23
11395;BME280;5753;54.402;10.220;2023-04-15T03:36:15;101064.44;;;16.72;57.76
11395;BME280;5753;54.402;10.220;2023-04-15T03:38:42;101062.84;;;16.41;57.67
11395;BME280;5753;54.402;10.220;2023-04-15T03:41:08;101060.72;;;17.13;56.20
11395;BME280;5753;54.402;10.220;2023-04-15T03:43:35;101052.81;;;17.25;55.69
11395;BME280;5753;54.402;10.220;2023-04-15T03:46:01;101054.19;;;16.35;59.29
11395;BME280;5753;54.402;10.220;2023-04-15T03:48:28;101062.19;;;15.65;60.34
11395;BME280;5753;54.402;10.220;2023-04-15T03:50:54;101060.50;;;17.37;55.23
11395;BME280;5753;54.402;10.220;2023-04-15T03:53:21;101064.16;;;17.18;56.02
11395;BME280;5753;54.402;10.220;2023-04-15T03:55:48;101055.63;;;16.91;57.49
11395;BME280;5753;54.402;10.220;2023-04-15T03:58:14;101056.03;;;16.09;59.44
11395;BME280;5753;54.402;10.220;2023-04-15T04:00:40;101058.47;;;16.43;59.00
11395;BME280;5753;54.402;10.220;2023-04-15T04:03:07;101052.38;;;16.56;58.76
11395;BME280;5753;54.402;10.220;2023-04-15T04:05:33;101054.97;;;16.53;59.10
11395;BME280;5753;54.402;10.220;2023-04-15T04:08:02;101059.38;;;16.38;59.00
11395;BME280;5753;54.402;10.220;2023-04-15T04:10:28;101065.41;;;16.45;60.10
11395;BME280;5753;54.402;10.220;2023-04-15T04:12:54;101064.50;;;16.52;59.66
11395;BME280;5753;54.402;10.220;2023-04-15T04:15:20;101062.16;;;15.81;62.42
11395;BME280;5753;54.402;10.220;2023-04-15T04:17:46;101063.56;;;16.73;59.35
11395;BME280;5753;54.402;10.220;2023-04-15T04:20:12;101061.47;;;17.25;56.88
11395;BME280;5753;54.402;10.220;2023-04-15T04:22:39;101069.09;;;17.48;56.28
11395;BME280;5753;54.402;10.220;2023-04-15T04:25:06;101068.03;;;17.74;55.42
11395;BME280;5753;54.402;10.220;2023-04-15T04:27:33;101065.09;;;17.06;57.05
11395;BME280;5753;54.402;10.220;2023-04-15T04:30:00;101066.22;;;16.55;59.28
11395;BME280;5753;54.402;10.220;2023-04-15T04:32:26;101067.66;;;17.14;57.40
11395;BME280;5753;54.402;10.220;2023-04-15T04:34:53;101062.00;;;16.31;59.82
11395;BME280;5753;54.402;10.220;2023-04-15T04:37:19;101065.34;;;16.60;58.28
11395;BME280;5753;54.402;10.220;2023-04-15T04:39:45;101063.91;;;15.77;61.89
11395;BME280;5753;54.402;10.220;2023-04-15T04:42:11;101073.41;;;15.83;62.38
11395;BME280;5753;54.402;10.220;2023-04-15T04:44:37;101063.66;;;16.50;59.80
11395;BME280;5753;54.402;10.220;2023-04-15T04:47:04;101056.00;;;16.18;61.45
11395;BME280;5753;54.402;10.220;2023-04-15T04:49:31;101063.03;;;15.16;65.68
11395;BME280;5753;54.402;10.220;2023-04-15T04:51:57;101050.38;;;17.04;58.53
11395;BME280;5753;54.402;10.220;2023-04-15T04:54:24;101065.53;;;16.07;61.14
11395;BME280;5753;54.402;10.220;2023-04-15T04:56:51;101065.06;;;17.11;58.39
11395;BME280;5753;54.402;10.220;2023-04-15T04:59:17;101067.22;;;17.69;56.20
11395;BME280;5753;54.402;10.220;2023-04-15T05:01:43;101066.00;;;17.00;57.71
11395;BME280;5753;54.402;10.220;2023-04-15T05:04:09;101067.34;;;15.91;62.86
11395;BME280;5753;54.402;10.220;2023-04-15T05:06:36;101063.38;;;17.00;58.84
11395;BME280;5753;54.402;10.220;2023-04-15T05:09:02;101058.09;;;17.14;59.02
11395;BME280;5753;54.402;10.220;2023-04-15T05:11:29;101067.59;;;17.20;58.40
11395;BME280;5753;54.402;10.220;2023-04-15T05:13:55;101059.91;;;17.00;58.32
11395;BME280;5753;54.402;10.220;2023-04-15T05:16:21;101082.53;;;16.93;58.36
11395;BME280;5753;54.402;10.220;2023-04-15T05:18:47;101087.13;;;16.40;61.37
11395;BME280;5753;54.402;10.220;2023-04-15T05:21:14;101075.94;;;16.15;62.32
11395;BME280;5753;54.402;10.220;2023-04-15T05:23:40;101088.81;;;16.50;61.69
11395;BME280;5753;54.402;10.220;2023-04-15T05:26:06;101088.75;;;16.70;60.50
11395;BME280;5753;54.402;10.220;2023-04-15T05:28:32;101086.88;;;16.94;58.71
11395;BME280;5753;54.402;10.220;2023-04-15T05:30:59;101089.03;;;18.38;54.97
11395;BME280;5753;54.402;10.220;2023-04-15T05:33:25;101099.81;;;17.08;58.62
11395;BME280;5753;54.402;10.220;2023-04-15T05:35:52;101095.50;;;16.99;59.00
11395;BME280;5753;54.402;10.220;2023-04-15T05:38:18;101101.91;;;16.28;61.56
11395;BME280;5753;54.402;10.220;2023-04-15T05:40:45;101100.25;;;15.97;62.37
11395;BME280;5753;54.402;10.220;2023-04-15T05:43:11;101098.03;;;17.15;59.52
11395;BME280;5753;54.402;10.220;2023-04-15T05:45:37;101102.69;;;16.46;60.36
11395;BME280;5753;54.402;10.220;2023-04-15T05:48:03;101101.78;;;17.86;57.51
11395;BME280;5753;54.402;10.220;2023-04-15T05:50:29;101100.84;;;16.81;59.89
11395;BME280;5753;54.402;10.220;2023-04-15T05:52:56;101101.19;;;17.58;56.70
11395;BME280;5753;54.402;10.220;2023-04-15T05:55:22;101103.47;;;17.93;56.54
11395;BME280;5753;54.402;10.220;2023-04-15T05:57:48;101095.50;;;17.03;59.20
11395;BME280;5753;54.402;10.220;2023-04-15T06:00:14;101105.94;;;18.07;56.40
11395;BME280;5753;54.402;10.220;2023-04-15T06:02:41;101108.91;;;17.66;57.04
11395;BME280;5753;54.402;10.220;2023-04-15T06:05:08;101113.28;;;18.51;55.13
11395;BME280;5753;54.402;10.220;2023-04-15T06:07:36;101107.56;;;18.89;53.65
11395;BME280;5753;54.402;10.220;2023-04-15T06:10:03;101105.56;;;19.08;53.25
11395;BME280;5753;54.402;10.220;2023-04-15T06:12:29;101107.78;;;19.32;52.60
11395;BME280;5753;54.402;10.220;2023-04-15T06:14:56;101115.34;;;18.21;55.20
11395;BME280;5753;54.402;10.220;2023-04-15T06:17:22;101123.00;;;17.40;57.37
11395;BME280;5753;54.402;10.220;2023-04-15T06:19:48;101124.25;;;18.04;56.08
11395;BME280;5753;54.402;10.220;2023-04-15T06:22:16;101121.16;;;18.43;55.03
11395;BME280;5753;54.402;10.220;2023-04-15T06:24:42;101130.22;;;17.05;57.45
11395;BME280;5753;54.402;10.220;2023-04-15T06:27:08;101131.22;;;16.78;59.06
11395;BME280;5753;54.402;10.220;2023-04-15T06:29:35;101131.03;;;17.14;58.09
11395;BME280;5753;54.402;10.220;2023-04-15T06:32:01;101132.88;;;18.10;55.59
11395;BME280;5753;54.402;10.220;2023-04-15T06:34:27;101137.22;;;16.90;59.26
11395;BME280;5753;54.402;10.220;2023-04-15T06:36:53;101133.19;;;15.93;61.92
11395;BME280;5753;54.402;10.220;2023-04-15T06:39:19;101141.56;;;16.93;59.32
11395;BME280;5753;54.402;10.220;2023-04-15T06:41:45;101138.03;;;17.06;58.61
11395;BME280;5753;54.402;10.220;2023-04-15T06:44:12;101141.09;;;17.65;57.71
11395;BME280;5753;54.402;10.220;2023-04-15T06:46:38;101146.06;;;17.93;55.83
11395;BME280;5753;54.402;10.220;2023-04-15T06:49:04;101141.78;;;17.85;56.28
11395;BME280;5753;54.402;10.220;2023-04-15T06:51:31;101140.91;;;16.34;60.00
11395;BME280;5753;54.402;10.220;2023-04-15T06:53:57;101147.78;;;16.46;60.08
11395;BME280;5753;54.402;10.220;2023-04-15T06:56:23;101149.16;;;17.31;58.67
11395;BME280;5753;54.402;10.220;2023-04-15T06:58:49;101153.22;;;18.56;54.46
11395;BME280;5753;54.402;10.220;2023-04-15T07:01:16;101163.75;;;19.19;53.33
11395;BME280;5753;54.402;10.220;2023-04-15T07:03:42;101166.78;;;16.83;59.63
11395;BME280;5753;54.402;10.220;2023-04-15T07:06:08;101170.09;;;18.26;56.19
11395;BME280;5753;54.402;10.220;2023-04-15T07:08:35;101173.31;;;19.20;52.80
11395;BME280;5753;54.402;10.220;2023-04-15T07:11:01;101174.69;;;18.01;56.03
11395;BME280;5753;54.402;10.220;2023-04-15T07:13:29;101172.91;;;16.70;58.06
11395;BME280;5753;54.402;10.220;2023-04-15T07:15:55;101178.81;;;17.07;58.44
11395;BME280;5753;54.402;10.220;2023-04-15T07:18:22;101183.81;;;17.39;57.75
11395;BME280;5753;54.402;10.220;2023-04-15T07:20:48;101175.84;;;18.57;54.46
11395;BME280;5753;54.402;10.220;2023-04-15T07:23:14;101179.75;;;18.96;53.39
11395;BME280;5753;54.402;10.220;2023-04-15T07:25:41;101187.00;;;18.73;53.54
11395;BME280;5753;54.402;10.220;2023-04-15T07:28:07;101189.09;;;19.14;52.52
11395;BME280;5753;54.402;10.220;2023-04-15T07:30:33;101185.25;;;17.86;55.15
11395;BME280;5753;54.402;10.220;2023-04-15T07:33:00;101180.72;;;18.87;53.21
11395;BME280;5753;54.402;10.220;2023-04-15T07:35:26;101184.66;;;19.19;51.63
11395;BME280;5753;54.402;10.220;2023-04-15T07:37:54;101184.53;;;18.59;52.90
11395;BME280;5753;54.402;10.220;2023-04-15T07:40:20;101193.28;;;18.53;53.33
11395;BME280;5753;54.402;10.220;2023-04-15T07:42:47;101188.75;;;19.37;52.25
11395;BME280;5753;54.402;10.220;2023-04-15T07:45:14;101199.59;;;19.11;52.17
11395;BME280;5753;54.402;10.220;2023-04-15T07:47:41;101198.75;;;19.69;50.85
11395;BME280;5753;54.402;10.220;2023-04-15T07:50:09;101194.75;;;18.80;53.28
11395;BME280;5753;54.402;10.220;2023-04-15T07:52:36;101200.25;;;18.53;53.15
11395;BME280;5753;54.402;10.220;2023-04-15T07:55:06;101198.88;;;18.18;54.71
11395;BME280;5753;54.402;10.220;2023-04-15T07:57:36;101202.69;;;19.37;52.62
11395;BME280;5753;54.402;10.220;2023-04-15T08:00:03;101205.72;;;18.29;54.52
11395;BME280;5753;54.402;10.220;2023-04-15T08:02:30;101204.09;;;19.63;51.44
11395;BME280;5753;54.402;10.220;2023-04-15T08:04:57;101208.13;;;18.51;54.91
11395;BME280;5753;54.402;10.220;2023-04-15T08:07:24;101213.31;;;18.54;54.71
11395;BME280;5753;54.402;10.220;2023-04-15T08:09:51;101214.66;;;19.57;52.66
11395;BME280;5753;54.402;10.220;2023-04-15T08:12:17;101208.50;;;20.61;50.80
11395;BME280;5753;54.402;10.220;2023-04-15T08:14:43;101213.94;;;20.01;50.12
11395;BME280;5753;54.402;10.220;2023-04-15T08:17:10;101213.19;;;19.93;50.73
11395;BME280;5753;54.402;10.220;2023-04-15T08:19:36;101214.53;;;18.18;54.00
11395;BME280;5753;54.402;10.220;2023-04-15T08:22:02;101223.75;;;17.46;56.06
11395;BME280;5753;54.402;10.220;2023-04-15T08:24:28;101230.38;;;17.94;55.50
11395;BME280;5753;54.402;10.220;2023-04-15T08:26:55;101231.31;;;18.80;53.30
11395;BME280;5753;54.402;10.220;2023-04-15T08:29:22;101227.25;;;17.40;56.14
11395;BME280;5753;54.402;10.220;2023-04-15T08:31:48;101235.66;;;17.88;55.82
11395;BME280;5753;54.402;10.220;2023-04-15T08:34:15;101237.09;;;19.05;52.74
11395;BME280;5753;54.402;10.220;2023-04-15T08:36:42;101241.47;;;18.20;54.92
11395;BME280;5753;54.402;10.220;2023-04-15T08:39:08;101238.88;;;19.03;52.35
11395;BME280;5753;54.402;10.220;2023-04-15T08:41:42;101237.66;;;18.56;52.58
11395;BME280;5753;54.402;10.220;2023-04-15T08:44:12;101241.97;;;18.59;54.21
11395;BME280;5753;54.402;10.220;2023-04-15T08:46:40;101236.44;;;19.56;52.08
11395;BME280;5753;54.402;10.220;2023-04-15T08:49:10;101247.13;;;19.97;51.32
11395;BME280;5753;54.402;10.220;2023-04-15T08:51:40;101245.56;;;18.49;53.60
11395;BME280;5753;54.402;10.220;2023-04-15T08:54:08;101250.97;;;19.12;53.70
11395;BME280;5753;54.402;10.220;2023-04-15T08:56:35;101253.63;;;20.26;50.84
11395;BME280;5753;54.402;10.220;2023-04-15T08:59:02;101251.50;;;20.49;50.47
11395;BME280;5753;54.402;10.220;2023-04-15T09:01:28;101251.69;;;20.85;50.36
11395;BME280;5753;54.402;10.220;2023-04-15T09:03:56;101247.53;;;21.16;49.41
11395;BME280;5753;54.402;10.220;2023-04-15T09:06:23;101247.31;;;20.37;50.76
11395;BME280;5753;54.402;10.220;2023-04-15T09:08:49;101255.75;;;21.43;49.13
11395;BME280;5753;54.402;10.220;2023-04-15T09:11:17;101249.00;;;22.07;47.84
11395;BME280;5753;54.402;10.220;2023-04-15T09:13:43;101250.38;;;21.49;48.44
11395;BME280;5753;54.402;10.220;2023-04-15T09:16:09;101261.09;;;21.38;49.46
11395;BME280;5753;54.402;10.220;2023-04-15T09:18:37;101267.28;;;21.35;48.30
11395;BME280;5753;54.402;10.220;2023-04-15T09:21:10;101262.41;;;22.62;46.66
11395;BME280;5753;54.402;10.220;2023-04-15T09:23:39;101270.31;;;22.62;46.79
11395;BME280;5753;54.402;10.220;2023-04-15T09:26:05;101277.59;;;21.00;48.77
11395;BME280;5753;54.402;10.220;2023-04-15T09:28:32;101288.72;;;21.91;48.41
11395;BME280;5753;54.402;10.220;2023-04-15T09:31:01;101284.88;;;19.81;51.74
11395;BME280;5753;54.402;10.220;2023-04-15T09:33:29;101293.44;;;19.28;53.87
11395;BME280;5753;54.402;10.220;2023-04-15T09:36:00;101288.91;;;21.02;50.63
11395;BME280;5753;54.402;10.220;2023-04-15T09:38:26;101297.91;;;19.84;52.48
11395;BME280;5753;54.402;10.220;2023-04-15T09:40:53;101297.59;;;21.47;49.74
11395;BME280;5753;54.402;10.220;2023-04-15T09:43:20;101288.28;;;21.73;46.99
11395;BME280;5753;54.402;10.220;2023-04-15T09:45:53;101296.22;;;22.76;46.96
11395;BME280;5753;54.402;10.220;2023-04-15T09:48:24;101295.78;;;21.51;49.52
11395;BME280;5753;54.402;10.220;2023-04-15T09:50:57;101304.03;;;20.40;49.73
11395;BME280;5753;54.402;10.220;2023-04-15T09:53:25;101305.66;;;20.95;49.38
11395;BME280;5753;54.402;10.220;2023-04-15T09:55:55;101301.97;;;21.87;48.45
11395;BME280;5753;54.402;10.220;2023-04-15T09:58:30;101318.91;;;21.72;46.89
11395;BME280;5753;54.402;10.220;2023-04-15T10:00:57;101315.09;;;21.87;48.01
11395;BME280;5753;54.402;10.220;2023-04-15T10:03:26;101322.25;;;23.78;45.24
11395;BME280;5753;54.402;10.220;2023-04-15T10:05:54;101312.75;;;22.12;46.80
11395;BME280;5753;54.402;10.220;2023-04-15T10:08:23;101319.66;;;22.16;46.36
11395;BME280;5753;54.402;10.220;2023-04-15T10:10:53;101318.16;;;22.41;45.94
11395;BME280;5753;54.402;10.220;2023-04-15T10:13:29;101315.69;;;21.16;47.06
11395;BME280;5753;54.402;10.220;2023-04-15T10:16:04;101326.38;;;21.52;48.73
11395;BME280;5753;54.402;10.220;2023-04-15T10:18:31;101329.97;;;23.53;45.09
11395;BME280;5753;54.402;10.220;2023-04-15T10:21:00;101331.69;;;21.49;47.72
11395;BME280;5753;54.402;10.220;2023-04-15T10:23:27;101338.88;;;22.87;45.61
11395;BME280;5753;54.402;10.220;2023-04-15T10:25:54;101335.41;;;21.79;46.51
11395;BME280;5753;54.402;10.220;2023-04-15T10:28:21;101342.25;;;23.53;44.00
11395;BME280;5753;54.402;10.220;2023-04-15T10:30:48;101342.16;;;21.49;46.26
11395;BME280;5753;54.402;10.220;2023-04-15T10:33:17;101342.72;;;22.02;46.22
11395;BME280;5753;54.402;10.220;2023-04-15T10:35:47;101345.66;;;21.49;47.55
11395;BME280;5753;54.402;10.220;2023-04-15T10:41:18;101345.25;;;25.29;40.83
11395;BME280;5753;54.402;10.220;2023-04-15T10:43:52;101351.31;;;24.56;42.21
11395;BME280;5753;54.402;10.220;2023-04-15T10:49:11;101348.53;;;24.06;41.48
11395;BME280;5753;54.402;10.220;2023-04-15T10:51:45;101349.63;;;22.07;44.09
11395;BME280;5753;54.402;10.220;2023-04-15T10:57:07;101355.00;;;22.74;43.10
11395;BME280;5753;54.402;10.220;2023-04-15T10:59:37;101359.19;;;23.75;42.27
11395;BME280;5753;54.402;10.220;2023-04-15T11:02:05;101359.19;;;23.13;43.21
11395;BME280;5753;54.402;10.220;2023-04-15T11:04:54;101360.91;;;23.14;43.32
11395;BME280;5753;54.402;10.220;2023-04-15T11:13:36;101370.28;;;24.92;40.01
11395;BME280;5753;54.402;10.220;2023-04-15T11:15:40;101379.38;;;24.03;40.95
11395;BME280;5753;54.402;10.220;2023-04-15T11:20:45;101375.75;;;23.48;42.73
11395;BME280;5753;54.402;10.220;2023-04-15T11:23:19;101379.59;;;22.70;42.35
11395;BME280;5753;54.402;10.220;2023-04-15T11:25:45;101378.84;;;24.47;40.16
11395;BME280;5753;54.402;10.220;2023-04-15T11:28:12;101381.97;;;24.59;40.14
11395;BME280;5753;54.402;10.220;2023-04-15T11:30:40;101361.28;;;24.99;40.10
11395;BME280;5753;54.402;10.220;2023-04-15T11:33:09;101376.81;;;23.73;42.02
11395;BME280;5753;54.402;10.220;2023-04-15T11:35:37;101377.66;;;23.43;42.14
11395;BME280;5753;54.402;10.220;2023-04-15T11:38:13;101376.22;;;23.92;40.85
11395;BME280;5753;54.402;10.220;2023-04-15T11:40:41;101380.03;;;25.17;39.62
11395;BME280;5753;54.402;10.220;2023-04-15T11:43:16;101390.69;;;24.06;40.53
11395;BME280;5753;54.402;10.220;2023-04-15T11:45:53;101392.53;;;24.32;39.29
11395;BME280;5753;54.402;10.220;2023-04-15T11:48:21;101390.41;;;23.88;40.01
11395;BME280;5753;54.402;10.220;2023-04-15T11:50:58;101394.25;;;24.33;40.71
11395;BME280;5753;54.402;10.220;2023-04-15T11:56:05;101396.19;;;23.07;42.22
11395;BME280;5753;54.402;10.220;2023-04-15T11:58:34;101393.44;;;22.42;43.88
11395;BME280;5753;54.402;10.220;2023-04-15T12:01:02;101408.16;;;23.17;43.26
11395;BME280;5753;54.402;10.220;2023-04-15T12:03:46;101410.91;;;24.06;42.13
11395;BME280;5753;54.402;10.220;2023-04-15T12:08:59;101423.63;;;24.75;39.76
11395;BME280;5753;54.402;10.220;2023-04-15T12:13:54;101420.88;;;26.00;36.91
11395;BME280;5753;54.402;10.220;2023-04-15T12:16:22;101422.59;;;27.49;34.94
11395;BME280;5753;54.402;10.220;2023-04-15T12:18:54;101433.94;;;26.26;36.87
11395;BME280;5753;54.402;10.220;2023-04-15T12:21:26;101431.94;;;25.39;36.90
11395;BME280;5753;54.402;10.220;2023-04-15T12:23:54;101440.31;;;26.86;36.52
11395;BME280;5753;54.402;10.220;2023-04-15T12:26:53;101434.16;;;26.44;35.44
11395;BME280;5753;54.402;10.220;2023-04-15T12:29:26;101431.91;;;27.58;34.25
11395;BME280;5753;54.402;10.220;2023-04-15T12:31:58;101431.31;;;26.70;36.26
11395;BME280;5753;54.402;10.220;2023-04-15T12:34:32;101437.63;;;28.26;33.03
11395;BME280;5753;54.402;10.220;2023-04-15T12:37:00;101438.88;;;25.19;36.36
11395;BME280;5753;54.402;10.220;2023-04-15T12:39:30;101441.13;;;28.62;32.37
11395;BME280;5753;54.402;10.220;2023-04-15T12:41:58;101451.50;;;28.86;31.61
11395;BME280;5753;54.402;10.220;2023-04-15T12:44:26;101442.75;;;31.07;29.25
11395;BME280;5753;54.402;10.220;2023-04-15T12:46:54;101437.91;;;30.69;29.89
11395;BME280;5753;54.402;10.220;2023-04-15T12:49:21;101443.34;;;33.05;27.06
11395;BME280;5753;54.402;10.220;2023-04-15T12:51:49;101444.81;;;32.57;26.02
11395;BME280;5753;54.402;10.220;2023-04-15T12:54:16;101444.56;;;31.79;28.27
11395;BME280;5753;54.402;10.220;2023-04-15T12:56:46;101441.13;;;29.97;28.92
11395;BME280;5753;54.402;10.220;2023-04-15T12:59:13;101451.59;;;31.52;26.69
11395;BME280;5753;54.402;10.220;2023-04-15T13:01:40;101455.78;;;32.67;26.60
11395;BME280;5753;54.402;10.220;2023-04-15T13:04:06;101451.75;;;31.20;26.94
11395;BME280;5753;54.402;10.220;2023-04-15T13:06:33;101460.31;;;30.65;27.73
11395;BME280;5753;54.402;10.220;2023-04-15T13:09:00;101459.97;;;31.31;27.28
11395;BME280;5753;54.402;10.220;2023-04-15T13:11:27;101468.69;;;30.28;28.27
11395;BME280;5753;54.402;10.220;2023-04-15T13:13:56;101455.09;;;30.48;28.66
11395;BME280;5753;54.402;10.220;2023-04-15T13:16:23;101460.59;;;32.47;26.75